Time;durP1;ratioP1;P1;durP2;ratioP2;P2;SDS_P1;SDS_P2;PMS_P1;PMS_P2;Temp;Humidity;BMP_temperature;BMP_pressure;BME280_temperature;BME280_humidity;BME280_pressure;Samples;Min_cycle;Max_cycle;Signal;HPM_P1;HPM_P2
2023/08/23 00:01:41;;;;;;;;;;;;;;;;;;;;;
2023/08/23 00:06:00;;;;;;;;;;;;;;;;;;;;;
2023/08/23 00:10:30;;;;;;;;;;;;;;;;;;;;;
2023/08/23 00:25:04;;;;;;;;;;;;;;;;;;;;;
2023/08/23 00:29:49;;;;;;;;;;;;;;;;;;;;;
2023/08/23 00:33:51;;;;;;;8.70;5.07;;;;;;;18.46;94.53;101029.03;4803202;29;20114;-87
2023/08/23 00:37:30;;;;;;;;;;;;;;;18.47;94.71;101020.13;4794597;29;20242;-86
2023/08/23 00:41:18;;;;;;;12.75;6.10;;;;;;;18.50;94.37;101017.22;4796246;29;20311;-86
2023/08/23 00:49:55;;;;;;;9.73;4.82;;;;;;;18.51;94.40;101024.22;4842317;29;20149;-87
2023/08/23 00:54:11;;;;;;;;;;;;;;;;;;;;;
2023/08/23 00:58:26;;;;;;;;;;;;;;;;;;;;;
2023/08/23 01:02:06;;;;;;;;;;;;;;;;;;;;;
2023/08/23 01:25:28;;;;;;;14.88;7.30;;;;;;;18.48;94.74;101027.13;4840373;29;20049;-87
2023/08/23 01:33:03;;;;;;;11.95;8.25;;;;;;;18.32;96.54;101038.03;4849281;29;20044;-87
2023/08/23 01:36:10;;;;;;;11.52;8.73;;;;;;;18.30;96.80;101037.31;4942957;29;20545;-86
2023/08/23 01:39:51;;;;;;;10.20;8.60;;;;;;;18.28;96.60;101034.78;4945320;29;20111;-87
2023/08/23 02:03:51;;;;;;;12.90;8.05;;;;;;;18.06;98.17;101024.13;4939916;29;20109;-85
2023/08/23 02:06:55;;;;;;;9.52;6.80;;;;;;;18.15;97.38;101026.06;4944389;29;20042;-86
2023/08/23 02:09:59;;;;;;;12.98;8.20;;;;;;;18.26;96.12;101019.97;4944934;29;20047;-86
2023/08/23 02:13:06;;;;;;;11.13;7.93;;;;;;;18.29;95.82;101028.53;4943991;29;20035;-86
2023/08/23 02:16:10;;;;;;;12.30;8.00;;;;;;;18.27;95.30;101025.16;4942155;29;20102;-86
2023/08/23 02:19:17;;;;;;;15.85;8.50;;;;;;;18.29;95.11;101023.22;4944330;29;20054;-86
2023/08/23 02:27:46;;;;;;;12.48;9.15;;;;;;;18.10;95.79;101020.31;4944514;29;20597;-87
2023/08/23 02:30:52;;;;;;;15.50;8.98;;;;;;;18.04;96.48;101023.41;4941365;29;20075;-74
2023/08/23 02:33:55;;;;;;;12.30;8.05;;;;;;;18.05;96.58;101025.09;4944830;29;20039;-74
2023/08/23 02:36:59;;;;;;;12.57;7.40;;;;;;;18.05;96.62;101022.44;4944145;29;20098;-74
2023/08/23 02:40:06;;;;;;;10.40;8.38;;;;;;;18.04;96.03;101020.78;4943544;29;20402;-74
2023/08/23 02:43:10;;;;;;;13.60;8.43;;;;;;;18.00;96.61;101025.47;4943101;29;20047;-73
2023/08/23 02:46:16;;;;;;;10.45;6.70;;;;;;;17.98;96.35;101023.88;4943693;29;20127;-73
2023/08/23 02:49:20;;;;;;;12.82;6.72;;;;;;;17.96;95.86;101028.44;4944484;29;20122;-73
2023/08/23 02:52:27;;;;;;;9.25;7.40;;;;;;;17.91;96.25;101027.97;4933619;29;20046;-72
2023/08/23 02:55:35;;;;;;;9.02;6.80;;;;;;;17.82;96.63;101026.84;4924426;29;20042;-73
2023/08/23 03:25:20;;;;;;;12.43;7.40;;;;;;;17.78;93.63;101004.22;4897831;29;20071;-73
2023/08/23 03:28:23;;;;;;;8.40;6.72;;;;;;;17.87;93.17;101012.31;4899704;29;20191;-73
2023/08/23 03:31:29;;;;;;;11.10;7.70;;;;;;;17.96;92.46;101016.03;4928294;29;20115;-74
2023/08/23 03:34:33;;;;;;;14.35;8.93;;;;;;;17.97;92.79;101006.34;4926736;29;20086;-74
2023/08/23 03:37:37;;;;;;;10.43;6.22;;;;;;;17.94;93.26;101014.50;4924664;29;20135;-73
2023/08/23 03:40:44;;;;;;;9.43;7.07;;;;;;;17.96;92.90;101009.91;4924403;29;20046;-74
2023/08/23 03:43:51;;;;;;;11.88;6.80;;;;;;;17.91;92.10;101018.22;4928256;29;20094;-74
2023/08/23 03:46:57;;;;;;;8.98;7.40;;;;;;;17.84;92.24;101017.81;4926343;29;20039;-74
2023/08/23 03:50:02;;;;;;;18.65;7.93;;;;;;;17.86;92.57;101020.34;4928088;29;20123;-74
2023/08/23 03:53:06;;;;;;;12.88;7.30;;;;;;;17.73;92.82;101015.09;4928286;29;20561;-74
2023/08/23 04:09:22;;;;;;;10.93;7.70;;;;;;;17.29;93.96;101008.63;5068638;28;20766;-66
2023/08/23 04:12:29;;;;;;;9.93;7.07;;;;;;;17.20;94.14;101011.97;5067981;28;20393;-66
2023/08/23 04:15:33;;;;;;;10.77;6.25;;;;;;;17.20;94.26;101010.16;5065963;28;20086;-66
2023/08/23 04:18:38;;;;;;;14.20;7.07;;;;;;;17.15;93.67;101009.63;5066535;28;20043;-65
2023/08/23 04:21:42;;;;;;;10.85;6.70;;;;;;;17.15;94.30;100999.06;5067068;28;20047;-65
2023/08/23 04:24:45;;;;;;;12.70;8.32;;;;;;;17.10;94.52;101010.91;5067482;28;20044;-65
2023/08/23 04:27:49;;;;;;;9.95;8.50;;;;;;;16.99;95.26;101002.94;5067592;28;20384;-66
2023/08/23 04:30:52;;;;;;;12.25;7.80;;;;;;;16.94;96.25;100996.19;5068167;28;20103;-66
2023/08/23 04:33:56;;;;;;;9.27;7.93;;;;;;;16.98;96.17;101006.53;5062302;28;20039;-66
2023/08/23 04:37:00;;;;;;;12.00;8.75;;;;;;;16.99;95.76;101008.22;5060864;28;20146;-66
2023/08/23 04:40:07;;;;;;;15.32;9.25;;;;;;;17.03;96.03;101010.53;5065368;28;20040;-66
2023/08/23 04:43:10;;;;;;;10.43;8.38;;;;;;;16.98;96.62;101010.03;5059841;28;20043;-66
2023/08/23 04:46:18;;;;;;;14.38;8.32;;;;;;;16.99;96.93;101013.50;5060460;28;20458;-66
2023/08/23 04:49:23;;;;;;;10.38;9.23;;;;;;;16.96;97.33;101018.03;5058881;28;20036;-65
2023/08/23 04:52:27;;;;;;;14.43;10.55;;;;;;;16.80;98.33;101022.72;5065775;28;20405;-66
2023/08/23 04:55:34;;;;;;;12.80;10.05;;;;;;;16.77;99.66;101024.75;5059522;28;20188;-66
2023/08/23 04:58:38;;;;;;;14.48;9.48;;;;;;;16.88;99.22;101032.72;5064142;28;20094;-65
2023/08/23 05:01:42;;;;;;;12.07;9.70;;;;;;;16.94;98.75;101022.59;5064649;28;20047;-64
2023/08/23 05:04:45;;;;;;;11.93;10.65;;;;;;;16.98;98.88;101025.03;5064841;28;20110;-65
2023/08/23 05:07:49;;;;;;;13.60;9.45;;;;;;;17.00;98.42;101018.66;5064185;28;20043;-66
2023/08/23 05:10:55;;;;;;;10.75;9.05;;;;;;;16.90;99.37;101023.75;5051808;28;20186;-66
2023/08/23 05:13:58;;;;;;;21.25;10.45;;;;;;;17.01;98.70;101027.47;5049917;28;20079;-66
2023/08/23 05:17:02;;;;;;;13.48;9.13;;;;;;;17.12;97.67;101031.00;5050517;28;20076;-66
2023/08/23 05:20:06;;;;;;;12.63;8.63;;;;;;;17.29;96.30;101032.41;5052458;28;20078;-66
2023/08/23 05:23:09;;;;;;;14.77;7.35;;;;;;;17.35;95.40;101024.03;5052036;28;20414;-66
2023/08/23 05:26:12;;;;;;;13.13;8.48;;;;;;;17.41;94.79;101023.59;5053054;28;20095;-66
2023/08/23 05:29:16;;;;;;;10.60;8.13;;;;;;;17.48;94.21;101025.81;5050486;28;20086;-66
2023/08/23 05:32:19;;;;;;;16.88;7.75;;;;;;;17.51;93.28;101020.28;5052447;28;20055;-67
2023/08/23 05:35:23;;;;;;;13.48;9.18;;;;;;;17.37;93.41;101034.53;5052589;28;20587;-66
2023/08/23 05:38:28;;;;;;;10.15;8.88;;;;;;;17.30;94.07;101034.13;5052721;28;20067;-65
2023/08/23 05:41:32;;;;;;;11.60;8.20;;;;;;;17.24;94.40;101029.28;5053432;28;20413;-65
2023/08/23 05:44:35;;;;;;;18.35;8.65;;;;;;;17.25;94.22;101036.25;5051974;28;20086;-65
2023/08/23 05:47:38;;;;;;;7.63;6.93;;;;;;;17.34;93.29;101040.88;5052648;28;20132;-65
2023/08/23 05:50:42;;;;;;;8.75;7.32;;;;;;;17.33;93.07;101038.34;5051440;28;20120;-65
2023/08/23 05:53:46;;;;;;;7.40;6.70;;;;;;;17.42;93.17;101043.81;5052228;28;20079;-65
2023/08/23 05:56:49;;;;;;;17.80;8.10;;;;;;;17.61;92.50;101048.59;5051478;28;20091;-66
2023/08/23 05:59:53;;;;;;;9.27;8.32;;;;;;;17.56;92.48;101049.88;5052410;28;20071;-65
2023/08/23 06:02:56;;;;;;;10.05;7.55;;;;;;;17.53;93.29;101042.19;5052091;28;20417;-66
2023/08/23 06:06:00;;;;;;;8.73;7.78;;;;;;;17.46;94.25;101048.88;5052132;28;20457;-66
2023/08/23 06:09:03;;;;;;;7.57;6.80;;;;;;;17.55;94.64;101046.41;5052203;28;20106;-66
2023/08/23 06:12:07;;;;;;;7.85;7.05;;;;;;;17.71;93.67;101051.41;5052021;28;20078;-66
2023/08/23 06:15:10;;;;;;;12.75;9.20;;;;;;;17.77;93.15;101056.28;5052145;28;20039;-66
2023/08/23 06:18:13;;;;;;;9.35;7.63;;;;;;;17.82;92.89;101061.22;5050183;28;20040;-66
2023/08/23 06:21:16;;;;;;;9.57;7.30;;;;;;;17.91;92.12;101049.13;5051035;28;20422;-66
2023/08/23 06:24:20;;;;;;;9.27;7.40;;;;;;;17.80;92.15;101047.25;5051751;28;20043;-66
2023/08/23 06:27:23;;;;;;;9.90;7.75;;;;;;;17.66;92.76;101053.53;5052194;28;20175;-66
2023/08/23 06:30:27;;;;;;;8.60;6.97;;;;;;;17.80;93.08;101057.84;5051451;28;20071;-66
2023/08/23 06:33:30;;;;;;;9.07;7.22;;;;;;;17.88;92.00;101051.03;5051685;28;20083;-66
2023/08/23 06:36:34;;;;;;;11.10;6.85;;;;;;;17.82;92.71;101059.41;5051707;28;20366;-66
2023/08/23 06:39:37;;;;;;;7.80;6.53;;;;;;;17.91;92.04;101065.84;5051509;28;20102;-66
2023/08/23 06:42:40;;;;;;;7.07;6.22;;;;;;;18.04;91.26;101071.06;5051636;28;20513;-66
2023/08/23 06:45:43;;;;;;;8.68;6.60;;;;;;;18.07;91.77;101060.25;5051598;28;20148;-66
2023/08/23 06:48:47;;;;;;;8.43;6.57;;;;;;;18.11;92.05;101062.53;5051466;28;20533;-66
2023/08/23 06:51:50;;;;;;;7.65;6.57;;;;;;;18.24;91.62;101064.25;5051565;28;20111;-65
2023/08/23 06:54:54;;;;;;;7.60;6.90;;;;;;;18.32;90.67;101065.34;5051281;28;20052;-66
2023/08/23 06:57:57;;;;;;;6.78;5.95;;;;;;;18.40;90.34;101069.22;5050979;28;20355;-66
2023/08/23 07:01:01;;;;;;;6.93;6.32;;;;;;;18.31;90.64;101068.09;5051247;28;20174;-66
2023/08/23 07:04:04;;;;;;;9.95;6.38;;;;;;;18.41;90.66;101078.84;5050980;28;20171;-66
2023/08/23 07:07:08;;;;;;;8.25;6.93;;;;;;;18.55;89.89;101076.00;5051051;28;20456;-74
2023/08/23 07:10:11;;;;;;;7.00;6.30;;;;;;;18.63;89.57;101068.28;5051548;28;20048;-74
2023/08/23 07:13:14;;;;;;;6.47;5.82;;;;;;;18.63;89.52;101067.44;5051498;28;20410;-74
2023/08/23 07:16:18;;;;;;;7.82;6.05;;;;;;;18.55;89.79;101065.41;5051268;28;20047;-74
2023/08/23 07:19:21;;;;;;;6.22;5.63;;;;;;;18.59;90.45;101061.53;5050538;28;20044;-73
2023/08/23 07:22:24;;;;;;;7.32;5.70;;;;;;;18.65;89.98;101050.47;5048014;28;20067;-73
2023/08/23 07:25:46;;;;;;;8.15;5.60;;;;;;;18.67;89.65;101053.84;5048576;28;20138;-76
2023/08/23 07:28:56;;;;;;;6.55;4.75;;;;;;;18.66;89.93;101060.09;5049772;28;20052;-75
2023/08/23 07:32:32;;;;;;;6.30;4.93;;;;;;;18.60;90.92;101052.63;5050052;28;20059;-74
2023/08/23 07:35:36;;;;;;;5.72;4.70;;;;;;;18.65;90.82;101052.28;5049677;28;20505;-73
2023/08/23 07:38:42;;;;;;;5.20;4.70;;;;;;;18.75;90.78;101054.13;5050320;28;20124;-73
2023/08/23 07:41:57;;;;;;;8.15;5.13;;;;;;;18.87;90.74;101054.97;5048474;28;20067;-74
2023/08/23 07:45:03;;;;;;;7.40;4.68;;;;;;;19.01;90.80;101059.16;5049862;28;20582;-75
2023/08/23 07:48:09;;;;;;;5.32;4.13;;;;;;;19.13;89.56;101057.34;5048000;28;20129;-73
2023/08/23 07:51:20;;;;;;;4.93;4.13;;;;;;;19.13;89.67;101044.94;5048416;28;20119;-73
2023/08/23 07:54:36;;;;;;;7.57;4.40;;;;;;;19.18;89.14;101047.25;5050300;28;20402;-74
2023/08/23 07:58:05;;;;;;;7.38;4.88;;;;;;;19.31;88.57;101050.59;5050728;28;20567;-74
2023/08/23 08:01:12;;;;;;;7.60;4.63;;;;;;;19.39;86.99;101063.22;5050419;28;20040;-75
2023/08/23 08:04:21;;;;;;;7.55;3.80;;;;;;;19.42;86.96;101052.34;5049960;28;20086;-75
2023/08/23 08:07:39;;;;;;;5.45;3.55;;;;;;;19.57;86.62;101050.28;5050782;28;20059;-75
2023/08/23 08:11:06;;;;;;;5.60;3.63;;;;;;;19.69;86.19;101052.81;5050284;28;20105;-75
2023/08/23 08:14:26;;;;;;;8.32;3.67;;;;;;;19.77;85.24;101051.31;5050709;28;20074;-75
2023/08/23 08:18:08;;;;;;;10.43;4.00;;;;;;;19.85;83.89;101055.03;5049717;28;20040;-74
2023/08/23 08:21:38;;;;;;;9.27;4.07;;;;;;;19.89;84.19;101045.84;5050273;28;20075;-76
2023/08/23 08:25:40;;;;;;;4.75;3.08;;;;;;;20.06;84.72;101044.41;5050363;28;20096;-76
2023/08/23 08:29:29;;;;;;;7.25;3.67;;;;;;;20.18;83.51;101040.72;5049783;28;20088;-77
2023/08/23 08:32:42;;;;;;;8.18;4.03;;;;;;;20.28;83.01;101037.31;5050636;28;20060;-76
2023/08/23 08:36:09;;;;;;;5.65;2.92;;;;;;;20.39;82.65;101037.25;5049865;28;20558;-75
2023/08/23 08:39:27;;;;;;;6.18;4.35;;;;;;;20.43;81.91;101043.97;5050594;28;20040;-76
2023/08/23 08:46:28;;;;;;;6.85;4.57;;;;;;;20.67;79.52;101049.00;5053252;28;20118;-77
2023/08/23 08:49:49;;;;;;;8.40;4.20;;;;;;;20.79;80.20;101047.09;5054190;28;20048;-76
2023/08/23 08:53:15;;;;;;;11.90;4.38;;;;;;;20.86;78.14;101049.06;5054254;28;20110;-74
2023/08/23 08:56:26;;;;;;;8.60;4.40;;;;;;;20.93;78.44;101044.09;5054049;28;20092;-75
2023/08/23 09:00:17;;;;;;;10.77;5.07;;;;;;;21.02;78.72;101043.25;5053726;28;20145;-73
2023/08/23 09:18:29;;;;;;;9.43;4.95;;;;;;;21.52;72.65;101023.81;4835560;29;20124;-76
2023/08/23 09:22:22;;;;;;;9.13;4.87;;;;;;;21.64;71.16;101021.84;4848354;29;20396;-76
2023/08/23 09:25:36;;;;;;;8.38;4.57;;;;;;;21.75;70.60;101019.03;4935466;28;20261;-76
2023/08/23 09:28:57;;;;;;;8.52;4.38;;;;;;;21.85;71.49;101019.88;5033458;28;20098;-74
2023/08/23 09:32:07;;;;;;;7.38;4.18;;;;;;;21.92;71.14;101021.00;5033164;28;20131;-82
2023/08/23 09:35:11;;;;;;;7.25;4.45;;;;;;;21.96;69.13;101016.22;5032695;28;20150;-67
2023/08/23 09:38:21;;;;;;;9.32;4.13;;;;;;;22.09;69.38;101015.94;5033094;28;20080;-67
2023/08/23 09:41:25;;;;;;;11.02;3.65;;;;;;;22.28;66.36;101010.59;5033383;28;20060;-68
2023/08/23 09:55:31;;;;;;;8.02;3.20;;;;;;;22.63;65.51;101001.91;4956412;28;20062;-77
2023/08/23 10:15:53;;;;;;;;;;;;;;;;;;;;;
2023/08/23 10:19:40;;;;;;;5.20;2.38;;;;;;;23.30;58.37;100996.38;4878944;29;20117;-75
2023/08/23 10:22:47;;;;;;;4.95;1.90;;;;;;;23.33;57.60;100996.06;4883047;29;20125;-75
2023/08/23 10:25:51;;;;;;;9.75;2.63;;;;;;;23.28;58.16;101004.53;4867837;29;20117;-75
2023/08/23 10:28:58;;;;;;;5.03;2.30;;;;;;;23.30;58.18;101001.72;4868631;29;20112;-77
2023/08/23 10:32:08;;;;;;;7.38;2.45;;;;;;;23.29;55.29;101000.84;4867408;29;20542;-68
2023/08/23 10:35:33;;;;;;;5.10;2.20;;;;;;;23.31;57.11;101004.22;4868696;29;20047;-68
2023/08/23 10:38:38;;;;;;;7.13;2.92;;;;;;;23.40;55.27;100987.31;4868712;29;20522;-68
2023/08/23 10:41:43;;;;;;;9.18;2.30;;;;;;;23.57;56.02;100979.44;4869287;29;20184;-77
2023/08/23 10:44:49;;;;;;;9.00;2.75;;;;;;;23.76;55.25;100979.28;4866030;29;20414;-77
2023/08/23 10:47:53;;;;;;;4.30;2.30;;;;;;;23.87;54.55;100987.06;4868612;29;20055;-77
2023/08/23 10:50:57;;;;;;;7.45;2.42;;;;;;;23.89;55.41;100987.75;4869312;29;20120;-77
2023/08/23 10:54:01;;;;;;;4.53;2.00;;;;;;;23.85;55.61;100983.72;4869272;29;20077;-77
2023/08/23 10:57:04;;;;;;;5.68;2.03;;;;;;;23.85;55.86;100981.03;4867186;29;20444;-77
2023/08/23 11:00:08;;;;;;;5.85;1.63;;;;;;;24.05;55.61;100975.50;4859528;29;20113;-77
2023/08/23 11:03:12;;;;;;;4.13;1.98;;;;;;;24.20;54.46;100979.28;4873605;29;20128;-76
2023/08/23 11:06:16;;;;;;;7.38;2.28;;;;;;;24.16;54.51;100977.09;4877795;29;20051;-76
2023/08/23 11:09:19;;;;;;;4.50;2.25;;;;;;;24.23;53.49;100962.94;4865768;29;20044;-83
2023/08/23 11:12:23;;;;;;;6.70;2.22;;;;;;;24.18;53.06;100970.56;4859061;29;20055;-75
2023/08/23 11:15:26;;;;;;;4.25;1.80;;;;;;;24.27;53.65;100953.59;4859275;29;20053;-75
2023/08/23 11:18:29;;;;;;;3.33;1.70;;;;;;;24.41;53.05;100949.53;4864600;29;20185;-76
2023/08/23 11:21:35;;;;;;;4.65;1.58;;;;;;;24.42;52.25;100948.53;4867774;29;20057;-76
2023/08/23 11:24:46;;;;;;;5.05;1.88;;;;;;;24.57;54.03;100943.41;4868426;29;20117;-76
2023/08/23 11:27:50;;;;;;;3.25;1.58;;;;;;;24.74;53.02;100945.13;4868682;29;20140;-76
2023/08/23 11:30:53;;;;;;;10.40;2.03;;;;;;;24.88;51.67;100953.53;4867663;29;20088;-76
2023/08/23 11:34:00;;;;;;;4.32;1.95;;;;;;;24.90;51.19;100959.56;4865566;29;20474;-77
2023/08/23 11:37:09;;;;;;;6.13;1.60;;;;;;;24.89;50.82;100964.09;4868772;29;20518;-76
2023/08/23 11:40:15;;;;;;;4.07;1.85;;;;;;;24.94;50.10;100960.91;4867600;29;20510;-77
2023/08/23 11:43:18;;;;;;;4.57;1.95;;;;;;;25.06;49.77;100959.59;4868292;29;20125;-77
2023/08/23 11:46:21;;;;;;;3.10;1.45;;;;;;;25.07;50.08;100961.28;4867578;29;20052;-77
2023/08/23 11:49:25;;;;;;;3.95;1.70;;;;;;;25.02;47.89;100961.78;4866704;29;20101;-77
2023/08/23 11:52:32;;;;;;;4.55;1.73;;;;;;;24.99;47.92;100964.78;4870570;29;20044;-78
2023/08/23 11:55:35;;;;;;;7.22;1.40;;;;;;;25.02;48.77;100955.59;4867397;29;20060;-77
2023/08/23 11:58:41;;;;;;;3.42;1.65;;;;;;;25.14;49.23;100961.47;4867426;29;20048;-77
2023/08/23 12:01:48;;;;;;;4.45;1.63;;;;;;;25.08;48.52;100956.75;4867862;29;20052;-78
2023/08/23 12:04:51;;;;;;;5.50;1.45;;;;;;;25.16;49.13;100954.97;4868598;29;20052;-78
2023/08/23 12:07:57;;;;;;;3.20;1.35;;;;;;;25.14;47.66;100950.78;4867158;29;20136;-78
2023/08/23 12:11:01;;;;;;;3.55;1.20;;;;;;;25.19;48.31;100946.59;4867340;29;20413;-78
2023/08/23 12:14:04;;;;;;;3.38;1.25;;;;;;;25.27;48.14;100952.00;4867661;29;20068;-78
2023/08/23 12:17:07;;;;;;;3.28;1.20;;;;;;;25.44;46.54;100941.28;4867496;29;20056;-78
2023/08/23 12:20:11;;;;;;;2.88;0.90;;;;;;;25.55;45.97;100943.63;4871128;29;20068;-78
2023/08/23 12:23:37;;;;;;;3.55;1.33;;;;;;;25.69;46.20;100939.44;4872053;29;20105;-78
2023/08/23 12:26:44;;;;;;;7.72;2.40;;;;;;;25.88;45.84;100941.78;4870943;29;20128;-77
2023/08/23 12:29:47;;;;;;;3.28;1.30;;;;;;;25.98;44.01;100944.28;4871722;29;20192;-77
2023/08/23 12:33:05;;;;;;;1.88;0.70;;;;;;;26.12;44.37;100932.03;4872075;29;20056;-78
2023/08/23 12:36:10;;;;;;;2.75;1.15;;;;;;;26.26;44.76;100930.47;4870712;29;20082;-77
2023/08/23 12:39:13;;;;;;;2.42;0.90;;;;;;;26.35;44.56;100924.06;4871424;29;20044;-77
2023/08/23 12:42:18;;;;;;;3.20;0.95;;;;;;;26.47;44.51;100927.22;4871770;29;20128;-78
2023/08/23 12:45:21;;;;;;;5.10;0.77;;;;;;;26.53;40.05;100926.53;4871984;29;20048;-84
2023/08/23 12:48:30;;;;;;;2.20;0.70;;;;;;;26.57;39.83;100923.31;4874774;29;20040;-77
2023/08/23 12:51:37;;;;;;;2.50;0.80;;;;;;;26.71;39.15;100912.84;4880531;29;20129;-78
2023/08/23 12:54:40;;;;;;;2.30;0.82;;;;;;;26.85;38.97;100909.44;4879773;29;20112;-78
2023/08/23 12:57:49;;;;;;;2.15;0.90;;;;;;;27.02;39.21;100916.34;4880563;29;20048;-78
2023/08/23 13:01:28;;;;;;;3.28;0.80;;;;;;;27.06;38.05;100912.31;4880503;29;20111;-78
2023/08/23 13:04:46;;;;;;;1.75;0.73;;;;;;;27.36;38.56;100912.44;4880802;29;20422;-79
2023/08/23 13:08:25;;;;;;;2.35;0.70;;;;;;;27.74;38.41;100904.38;4880504;29;20052;-79
2023/08/23 13:11:39;;;;;;;2.47;1.02;;;;;;;27.98;37.73;100906.00;4880726;29;20097;-79
2023/08/23 13:15:16;;;;;;;2.13;0.77;;;;;;;28.33;36.60;100900.88;4879179;29;20047;-78
2023/08/23 13:19:24;;;;;;;2.40;0.70;;;;;;;28.24;32.43;100903.69;4879215;29;20133;-77
2023/08/23 13:22:31;;;;;;;2.75;1.25;;;;;;;28.42;32.90;100891.72;4872209;29;20089;-77
2023/08/23 13:25:36;;;;;;;2.63;0.98;;;;;;;28.69;32.00;100893.72;4880318;29;20056;-77
2023/08/23 13:28:42;;;;;;;2.88;1.00;;;;;;;28.98;30.90;100889.25;4880468;29;20399;-78
2023/08/23 13:31:48;;;;;;;2.00;0.90;;;;;;;29.26;29.83;100886.66;4880149;29;20185;-78
2023/08/23 13:34:54;;;;;;;2.38;1.20;;;;;;;29.64;29.98;100880.94;4879604;29;20535;-78
2023/08/23 13:37:58;;;;;;;3.47;1.15;;;;;;;29.94;29.46;100869.97;4880121;29;20094;-77
2023/08/23 13:41:01;;;;;;;2.40;1.35;;;;;;;30.00;29.63;100875.38;4878312;29;20139;-78
2023/08/23 13:44:05;;;;;;;2.90;1.30;;;;;;;30.07;29.30;100870.03;4865987;29;20084;-78
2023/08/23 13:47:10;;;;;;;3.55;1.30;;;;;;;30.11;28.29;100873.97;4861177;29;20658;-78
2023/08/23 13:50:21;;;;;;;3.80;1.88;;;;;;;30.98;28.95;100876.00;4861191;29;20419;-78
2023/08/23 13:53:50;;;;;;;;;;;;;;;;;;;;;
2023/08/23 13:57:04;;;;;;;2.78;1.30;;;;;;;32.85;28.09;100862.84;4861199;29;20049;-79
2023/08/23 14:00:08;;;;;;;3.63;1.52;;;;;;;35.50;23.30;100853.41;4865858;29;20039;-79
2023/08/23 14:03:16;;;;;;;4.93;1.30;;;;;;;38.35;19.95;100842.22;4870673;29;20055;-79
2023/08/23 14:06:30;;;;;;;3.92;1.30;;;;;;;40.55;17.18;100838.13;4870383;29;20052;-79
2023/08/23 14:09:36;;;;;;;4.90;1.40;;;;;;;42.01;16.26;100827.22;4870441;29;20055;-80
2023/08/23 14:13:00;;;;;;;2.90;1.42;;;;;;;41.02;17.44;100828.84;4867993;29;20411;-79
2023/08/23 14:16:12;;;;;;;4.80;1.45;;;;;;;42.36;16.52;100827.34;4868739;29;20056;-79
2023/08/23 14:19:43;;;;;;;3.00;1.30;;;;;;;40.81;16.07;100817.91;4867304;29;20053;-79
2023/08/23 14:23:14;;;;;;;3.00;1.35;;;;;;;42.13;16.59;100807.66;4867340;29;20471;-78
2023/08/23 14:26:29;;;;;;;4.43;1.30;;;;;;;42.40;15.31;100815.47;4869053;29;20096;-78
2023/08/23 14:29:41;;;;;;;3.58;1.50;;;;;;;41.99;17.60;100817.63;4876872;29;20044;-67
2023/08/23 14:32:50;;;;;;;5.75;1.40;;;;;;;42.87;17.26;100815.94;4879040;29;20137;-71
2023/08/23 14:35:53;;;;;;;8.67;1.47;;;;;;;43.69;17.16;100820.63;4863259;29;20053;-71
2023/08/23 14:38:57;;;;;;;2.40;1.30;;;;;;;43.78;16.39;100813.31;4869171;29;20043;-71
2023/08/23 14:42:00;;;;;;;3.55;1.60;;;;;;;43.56;14.80;100817.47;4877756;29;20052;-69
2023/08/23 14:45:05;;;;;;;4.50;2.40;;;;;;;43.66;16.23;100815.69;4860238;29;20053;-70
2023/08/23 14:48:08;;;;;;;4.43;1.70;;;;;;;42.06;15.72;100823.66;4878275;29;20047;-68
2023/08/23 14:51:11;;;;;;;3.40;1.88;;;;;;;42.19;16.00;100822.19;4879484;29;20142;-70
2023/08/23 14:54:17;;;;;;;3.47;1.33;;;;;;;41.77;15.59;100815.22;4878814;29;20184;-77
2023/08/23 14:57:21;;;;;;;5.20;1.90;;;;;;;41.29;14.70;100815.69;4876971;29;20052;-74
2023/08/23 15:00:30;;;;;;;4.88;1.98;;;;;;;42.17;17.23;100807.91;4877160;29;20411;-77
2023/08/23 15:03:37;;;;;;;2.45;1.17;;;;;;;41.82;16.53;100810.53;4877517;29;20475;-77
2023/08/23 15:06:40;;;;;;;3.30;1.30;;;;;;;42.21;14.92;100806.22;4866277;29;20044;-75
2023/08/23 15:09:49;;;;;;;3.33;1.50;;;;;;;41.87;17.22;100800.69;4859824;29;20049;-75
2023/08/23 15:13:02;;;;;;;3.40;1.70;;;;;;;41.48;18.78;100798.63;4859243;29;20844;-76
2023/08/23 15:16:06;;;;;;;3.28;1.70;;;;;;;41.25;18.81;100800.84;4858451;29;20209;-74
2023/08/23 15:19:09;;;;;;;3.92;1.75;;;;;;;41.27;17.89;100804.16;4878078;29;20100;-75
2023/08/23 15:22:14;;;;;;;3.83;1.60;;;;;;;40.84;16.95;100795.41;4872699;29;20053;-79
2023/08/23 15:25:44;;;;;;;3.58;1.40;;;;;;;40.33;19.10;100797.28;4876995;29;20184;-80
2023/08/23 15:28:48;;;;;;;3.75;1.55;;;;;;;40.48;19.21;100793.75;4867436;29;20480;-73
2023/08/23 15:31:52;;;;;;;3.78;1.90;;;;;;;40.66;18.61;100791.31;4869859;29;20101;-73
2023/08/23 15:39:17;;;;;;;4.13;1.70;;;;;;;40.75;20.28;100788.00;4859726;29;20408;-82
2023/08/23 15:42:22;;;;;;;7.32;1.83;;;;;;;40.82;19.64;100789.38;4859416;29;20045;-82
2023/08/23 15:45:26;;;;;;;8.63;1.65;;;;;;;40.28;19.73;100784.41;4858834;29;20057;-80
2023/08/23 15:48:30;;;;;;;5.40;1.70;;;;;;;39.74;20.11;100791.09;4859022;29;20053;-79
2023/08/23 15:51:33;;;;;;;3.55;1.50;;;;;;;39.07;22.30;100792.59;4859045;29;20121;-74
2023/08/23 15:54:36;;;;;;;7.22;1.77;;;;;;;39.01;23.37;100779.16;4858648;29;20052;-64
2023/08/23 15:57:41;;;;;;;8.52;1.33;;;;;;;38.29;23.63;100777.69;4867005;29;20072;-74
2023/08/23 16:00:47;;;;;;;7.43;1.80;;;;;;;37.36;24.38;100767.56;4867065;29;20113;-74
2023/08/23 16:03:53;;;;;;;8.40;2.20;;;;;;;37.46;24.47;100775.06;4864299;29;20068;-74
2023/08/23 16:06:58;;;;;;;7.65;1.60;;;;;;;36.90;26.30;100771.50;4869000;29;20048;-73
2023/08/23 16:10:06;;;;;;;8.70;2.17;;;;;;;35.21;28.72;100776.34;4869817;29;20048;-74
2023/08/23 16:13:09;;;;;;;7.30;2.15;;;;;;;33.88;30.02;100766.63;4868193;29;20064;-75
2023/08/23 16:16:13;;;;;;;7.00;2.22;;;;;;;33.16;31.84;100758.25;4867721;29;20475;-74
2023/08/23 16:19:18;;;;;;;5.22;1.92;;;;;;;32.80;31.69;100773.31;4866909;29;20052;-76
2023/08/23 16:22:25;;;;;;;6.68;1.80;;;;;;;32.19;34.62;100764.72;4868235;29;20585;-74
2023/08/23 16:25:29;;;;;;;4.28;1.63;;;;;;;31.93;33.88;100767.56;4866958;29;20096;-75
2023/08/23 16:28:32;;;;;;;8.50;2.28;;;;;;;31.47;34.35;100761.28;4867606;29;20406;-75
2023/08/23 16:31:36;;;;;;;7.00;1.95;;;;;;;30.97;38.45;100768.16;4867398;29;20052;-75
2023/08/23 16:34:40;;;;;;;7.28;1.95;;;;;;;30.73;37.69;100773.13;4867435;29;20056;-75
2023/08/23 16:42:28;;;;;;;7.68;2.33;;;;;;;29.89;39.06;100777.00;4868302;29;20416;-74
2023/08/23 16:45:35;;;;;;;6.43;1.75;;;;;;;29.52;40.92;100772.88;4866246;29;20052;-73
2023/08/23 16:48:39;;;;;;;11.45;2.25;;;;;;;29.22;42.41;100776.81;4867385;29;20063;-73
2023/08/23 16:51:42;;;;;;;6.30;2.03;;;;;;;29.18;42.19;100769.13;4858222;29;20132;-74
2023/08/23 16:54:47;;;;;;;18.63;2.55;;;;;;;28.92;43.34;100779.66;4860068;29;20116;-74
2023/08/23 16:57:51;;;;;;;10.85;2.00;;;;;;;28.58;44.35;100783.91;4871239;29;20101;-73
2023/08/23 17:00:55;;;;;;;9.05;2.00;;;;;;;28.41;45.23;100777.94;4876571;29;20052;-73
2023/08/23 17:03:59;;;;;;;9.23;2.03;;;;;;;28.07;43.71;100769.66;4875978;29;20044;-73
2023/08/23 17:07:07;;;;;;;11.38;1.92;;;;;;;27.79;47.52;100776.56;4880113;29;20067;-74
2023/08/23 17:10:11;;;;;;;8.40;3.05;;;;;;;27.52;48.65;100769.97;4874747;29;20072;-74
2023/08/23 17:13:14;;;;;;;6.43;2.20;;;;;;;27.30;48.03;100769.03;4869953;29;20049;-74
2023/08/23 17:16:21;;;;;;;11.20;3.55;;;;;;;27.15;50.02;100772.69;4869437;29;20056;-74
2023/08/23 17:19:26;;;;;;;7.68;2.03;;;;;;;27.15;50.13;100770.00;4871296;29;20094;-73
2023/08/23 17:22:31;;;;;;;10.48;2.60;;;;;;;26.98;50.88;100769.31;4867472;29;20043;-75
2023/08/23 17:25:40;;;;;;;8.55;2.00;;;;;;;26.72;52.15;100769.69;4866782;29;20036;-75
2023/08/23 17:28:43;;;;;;;8.65;2.30;;;;;;;26.56;52.77;100760.75;4873614;29;20051;-75
2023/08/23 17:31:47;;;;;;;11.50;2.40;;;;;;;26.45;53.41;100761.13;4879363;29;20052;-74
2023/08/23 17:34:51;;;;;;;7.90;2.30;;;;;;;26.26;54.38;100765.13;4876173;29;20105;-74
2023/08/23 17:37:55;;;;;;;8.48;2.20;;;;;;;26.13;54.21;100771.06;4879655;29;20359;-74
2023/08/23 17:41:08;;;;;;;5.97;1.70;;;;;;;26.03;55.26;100770.41;4869718;29;20052;-74
2023/08/23 17:44:14;;;;;;;6.65;1.77;;;;;;;25.83;55.97;100774.53;4868868;29;20072;-73